Amity, Arkansas
Current Conditions -  °F | °C
As of 2:53 AM on Thursday 18 Dec 2014 (Local Time) from KMWT Reporting Station
Haze Haze  
Wind Chill:   Ceiling: 800
Heat Index:   Visibility: 6mi
Dew Point:   Wind: 0mph
Humidity: 93%   Direction: NA
Pressure: 30.16"   Gusts: NA
Location:  34.26°N, 93.46°W
Report Text: KMWT 180853Z AUTO 00000KT 6SM UP BR OVC008 03/02 A3016 RMK AO2 RAE02B11E36UPB02E25B36 SLP223 P0000 60003 T00280017 56018
Loading
Personal Weather Stations






























Interactive Weather Map New forecast layout! Learn more

10-Day Weather Forecast

Advertisements
Track Severe Weather on mobile